Home > Products > Valid Products > MTR

000
SAUS46 KPDT 241157
MTRMEH
METAR KMEH 241156Z AUTO 00000KT 10SM OVC070 06/05 A3005 RMK AO2
SLP182 70049 T00560050 10061 20050 51001





000
SAUS46 KPDT 241057
MTRMEH
METAR KMEH 241056Z AUTO 00000KT 10SM BKN036 OVC065 06/05 A3005 RMK
AO2 SLP180 T00560050





000
SAUS46 KPDT 241057
MTRMEH
METAR KMEH 241056Z AUTO 00000KT 10SM BKN036 OVC065 06/05 A3005 RMK
AO2 SLP180 T00560050





000
SAUS46 KPDT 241010
MTRMEH
SPECI KMEH 241007Z AUTO 00000KT 10SM FEW002 BKN037 OVC080 06/05
A3005 RMK AO2 T00560050





000
SAUS46 KPDT 240958
MTRMEH
METAR KMEH 240956Z AUTO 00000KT 10SM OVC035 06/05 A3005 RMK AO2
SLP181 T00560050





000
SAUS46 KPDT 240958
MTRMEH
METAR KMEH 240956Z AUTO 00000KT 10SM OVC035 06/05 A3005 RMK AO2
SLP181 T00560050





000
SAUS46 KPDT 240919
MTRMEH
SPECI KMEH 240916Z AUTO 00000KT 10SM FEW002 FEW029 OVC055 06/05
A3006 RMK AO2 T00560050





000
SAUS46 KPDT 240907
MTRMEH
SPECI KMEH 240906Z AUTO 00000KT 9SM FEW001 BKN029 OVC055 06/05 A3006
RMK AO2 T00560050





000
SAUS46 KPDT 240857
MTRMEH
METAR KMEH 240856Z AUTO 00000KT 10SM BKN029 OVC050 06/05 A3005 RMK
AO2 SLP174 T00560050 51006





000
SAUS46 KPDT 240851
MTRMEH
SPECI KMEH 240847Z AUTO 00000KT 10SM OVC029 06/05 A3005 RMK AO2
T00610050





000
SAUS46 KPDT 240833 COR
MTRMEH
SPECI KMEH 240828Z AUTO 00000KT 10SM OVC030 06/05 A3005 RMK AO2
T00610050





000
SAUS46 KPDT 240832 COR
MTRMEH
SPECI KMEH 240828Z AUTO 00000KT 10SM OVC030 06/05 A3005 RMK AO2
T00610050





000
SAUS46 KPDT 240757
MTRMEH
METAR KMEH 240756Z AUTO 00000KT 9SM OVC025 06/05 A3005 RMK AO2
SLP172 T00610050 401440050





000
SAUS46 KPDT 240657
MTRMEH
METAR KMEH 240656Z AUTO 00000KT 10SM BKN027 06/05 A3004 RMK AO2
SLP170 T00560050





000
SAUS46 KPDT 240647
MTRMEH
SPECI KMEH 240646Z AUTO 00000KT 10SM BKN029 BKN045 05/05 A3004 RMK
AO2 T00500050





000
SAUS46 KPDT 240621
MTRMEH
SPECI KMEH 240618Z AUTO 00000KT 8SM SCT002 BKN030 OVC055 06/04 A3004
RMK AO2 T00560044





000
SAUS46 KPDT 240605
MTRMEH
SPECI KMEH 240603Z AUTO 00000KT 10SM BKN002 BKN035 06/04 A3003 RMK
AO2 T00560044





000
SAUS46 KPDT 240557
MTRMEH
METAR KMEH 240556Z AUTO 00000KT 9SM SCT002 06/04 A3003 RMK AO2
SLP166 60013 T00560044 10078 20056 53007





000
SAUS46 KPDT 240522
MTRMEH
SPECI KMEH 240521Z AUTO 00000KT 10SM FEW001 06/05 A3002 RMK AO2
T00560050





000
SAUS46 KPDT 240457
MTRMEH
METAR KMEH 240456Z AUTO 00000KT 10SM CLR 06/05 A3002 RMK AO2 SLP164
T00610050





000
SAUS46 KPDT 240457
MTRMEH
METAR KMEH 240456Z AUTO 00000KT 10SM CLR 06/05 A3002 RMK AO2 SLP164
T00610050





000
SAUS46 KPDT 240421
MTRMEH
SPECI KMEH 240420Z AUTO 00000KT 10SM FEW002 06/06 A3001 RMK AO2
T00610056





000
SAUS46 KPDT 240409
MTRMEH
SPECI KMEH 240408Z AUTO 00000KT 7SM BKN002 06/06 A3000 RMK AO2
T00610056





000
SAUS46 KPDT 240409
MTRMEH
SPECI KMEH 240408Z AUTO 00000KT 7SM BKN002 06/06 A3000 RMK AO2
T00610056





000
SAUS46 KPDT 240357
MTRMEH
METAR KMEH 240356Z AUTO 00000KT 10SM SCT002 BKN120 06/06 A3000 RMK
AO2 SLP161 T00610056





000
SAUS46 KPDT 240357
MTRMEH
METAR KMEH 240356Z AUTO 00000KT 10SM SCT002 BKN120 06/06 A3000 RMK
AO2 SLP161 T00610056





000
SAUS46 KPDT 240321
MTRMEH
SPECI KMEH 240320Z AUTO 00000KT 10SM SCT002 BKN070 OVC120 07/06
A3001 RMK AO2 T00670061





000
SAUS46 KPDT 240321
MTRMEH
SPECI KMEH 240320Z AUTO 00000KT 10SM SCT002 BKN070 OVC120 07/06
A3001 RMK AO2 T00670061





000
SAUS46 KPDT 240257
MTRMEH
METAR KMEH 240256Z AUTO 00000KT 10SM FEW024 BKN041 OVC120 07/07
A3000 RMK AO2 SLP162 60013 T00720067 51008





000
SAUS46 KPDT 240257
MTRMEH
METAR KMEH 240256Z AUTO 00000KT 10SM FEW024 BKN041 OVC120 07/07
A3000 RMK AO2 SLP162 60013 T00720067 51008





000
SAUS46 KPDT 240254
MTRMEH
SPECI KMEH 240253Z AUTO 00000KT 10SM SCT022 BKN038 OVC070 07/07
A3000 RMK AO2





000
SAUS46 KPDT 240254
MTRMEH
SPECI KMEH 240253Z AUTO 00000KT 10SM SCT022 BKN038 OVC070 07/07
A3000 RMK AO2





000
SAUS46 KPDT 240215
MTRMEH
SPECI KMEH 240214Z AUTO 00000KT 10SM BKN020 07/07 A3000 RMK AO2
T00720067





000
SAUS46 KPDT 240215
MTRMEH
SPECI KMEH 240214Z AUTO 00000KT 10SM BKN020 07/07 A3000 RMK AO2
T00720067





000
SAUS46 KPDT 240157
MTRMEH
METAR KMEH 240156Z AUTO 00000KT 10SM FEW019 SCT024 SCT040 07/07
A2998 RMK AO2 SLP155 T00720067





000
SAUS46 KPDT 240157
MTRMEH
METAR KMEH 240156Z AUTO 00000KT 10SM FEW019 SCT024 SCT040 07/07
A2998 RMK AO2 SLP155 T00720067





000
SAUS46 KPDT 240100 COR
MTRMEH
METAR KMEH 240056Z AUTO 00000KT 10SM OVC017 08/07 A2998 RMK AO2
RAE51 SLP152 P0013 T00780067





000
SAUS46 KPDT 240058 COR
MTRMEH
METAR KMEH 240056Z AUTO 00000KT 10SM OVC017 08/07 A2998 RMK AO2
RAE51 SLP152 P0013 T00780067





000
SAUS46 KPDT 240045
MTRMEH
SPECI KMEH 240042Z AUTO 00000KT 6SM -RA BR BKN017 BKN030 OVC037
08/07 A2998 RMK AO2 P0013 T00780072





000
SAUS46 KPDT 240035 COR
MTRMEH
SPECI KMEH 240030Z AUTO 00000KT 4SM RA BR SCT010 BKN014 OVC047 08/07
A2998 RMK AO2 P0011 T00780072





000
SAUS46 KPDT 240033 COR
MTRMEH
SPECI KMEH 240030Z AUTO 00000KT 4SM RA BR SCT010 BKN014 OVC047 08/07
A2998 RMK AO2 P0011 T00780072





000
SAUS46 KPDT 240013
MTRMEH
SPECI KMEH 240012Z AUTO 00000KT 2 1/2SM RA BR BKN011 OVC029 08/07
A2997 RMK AO2 VIS 1V5 P0003 T00780072





000
SAUS46 KPDT 240003
MTRMEH
SPECI KMEH 232359Z AUTO 00000KT 8SM -RA BKN009 BKN023 OVC033 08/07
A2996 RMK AO2 P0000 T00780072





000
SAUS46 KPDT 232357
MTRMEH
METAR KMEH 232356Z AUTO 00000KT 6SM -RA BR SCT009 SCT023 OVC033
08/07 A2996 RMK AO2 RAE11B37 SLP146 P0004 60036 T00780072 10144
20078 51022





000
SAUS46 KPDT 232339
MTRMEH
SPECI KMEH 232335Z AUTO 00000KT 10SM FEW018 BKN034 OVC090 08/07
A2995 RMK AO2 RAE11 P0001 T00780072





000
SAUS46 KPDT 232310
MTRMEH
SPECI KMEH 232309Z AUTO VRB03KT 10SM -RA SCT007 BKN019 OVC027 08/08
A2995 RMK AO2 P0001 T00830078





000
SAUS46 KPDT 232303
MTRMEH
SPECI KMEH 232302Z AUTO 00000KT 3SM -RA BR BKN007 BKN019 OVC042
08/08 A2994 RMK AO2 P0001 T00830078





000
SAUS46 KPDT 232301
MTRMEH
SPECI KMEH 232300Z AUTO 00000KT 2SM -RA BR SCT007 BKN013 OVC042
08/08 A2994 RMK AO2 P0001 T00830078





000
SAUS46 KPDT 232258
MTRMEH
METAR KMEH 232256Z AUTO 00000KT 1 1/2SM RA BR SCT007 BKN027 OVC042
08/07 A2994 RMK AO2 RAE19B36 SLP139 P0012 T00830072





000
SAUS46 KPDT 232256
MTRMEH
SPECI KMEH 232253Z AUTO VRB03KT 1 3/4SM RA BR SCT010 BKN027 OVC042
08/07 A2993 RMK AO2 RAE19B36 P0010





000
SAUS46 KPDT 232214
MTRMEH
SPECI KMEH 232211Z AUTO 00000KT 9SM -RA FEW010 BKN042 OVC100 08/07
A2992 RMK AO2 P0009 T00830072





000
SAUS46 KPDT 232206
MTRMEH
SPECI KMEH 232203Z AUTO 00000KT 2SM -RA BR FEW008 SCT025 OVC034
08/07 A2992 RMK AO2 P0008 T00830067





000
SAUS46 KPDT 232157
MTRMEH
METAR KMEH 232156Z AUTO VRB04KT 1 1/2SM +RA BR FEW008 BKN021 OVC037
08/07 A2993 RMK AO2 SLP136 P0019 T00830072





000
SAUS46 KPDT 232152
MTRMEH
SPECI KMEH 232148Z AUTO VRB04KT 3SM RA BR FEW008 BKN027 OVC037 08/08
A2993 RMK AO2 P0016 T00830078





000
SAUS46 KPDT 232152
MTRMEH
SPECI KMEH 232148Z AUTO VRB04KT 3SM RA BR FEW008 BKN027 OVC037 08/08
A2993 RMK AO2 P0016 T00830078





000
SAUS46 KPDT 232143
MTRMEH
SPECI KMEH 232140Z AUTO VRB03KT 1 1/4SM +RA BR SCT008 BKN027 OVC034
09/08 A2992 RMK AO2 P0013 T00890078





000
SAUS46 KPDT 232143
MTRMEH
SPECI KMEH 232140Z AUTO VRB03KT 1 1/4SM +RA BR SCT008 BKN027 OVC034
09/08 A2992 RMK AO2 P0013 T00890078





000
SAUS46 KPDT 232132
MTRMEH
SPECI KMEH 232131Z AUTO VRB04KT 2 1/2SM RA BR FEW008 BKN032 OVC041
11/09 A2991 RMK AO2 P0004 T01060089





000
SAUS46 KPDT 232057
MTRMEH
METAR KMEH 232056Z AUTO 00000KT 10SM -RA SCT039 BKN047 OVC060 13/07
A2989 RMK AO2 RAB45 SLP111 P0000 60001 T01280067 51008





000
SAUS46 KPDT 231957
MTRMEH
METAR KMEH 231956Z AUTO 10SM FEW055 SCT070 OVC095 14/05 A2988 RMK
AO2 SLP108 T01390050





000
SAUS46 KPDT 231957
MTRMEH
METAR KMEH 231956Z AUTO 10SM FEW055 SCT070 OVC095 14/05 A2988 RMK
AO2 SLP108 T01390050





000
SAUS46 KPDT 231858
MTRMEH
METAR KMEH 231856Z AUTO 00000KT 10SM FEW050 BKN070 OVC110 13/07
A2988 RMK AO2 RAB24E45 SLP108 P0001 T01330067





000
SAUS46 KPDT 231858
MTRMEH
METAR KMEH 231856Z AUTO 00000KT 10SM FEW050 BKN070 OVC110 13/07
A2988 RMK AO2 RAB24E45 SLP108 P0001 T01330067





000
SAUS46 KPDT 231757
MTRMEH
METAR KMEH 231756Z AUTO 00000KT 10SM FEW048 BKN080 OVC090 14/06
A2986 RMK AO2 SLP100 60000 T01390056 10139 20078 50008





000
SAUS46 KPDT 231757
MTRMEH
METAR KMEH 231756Z AUTO 00000KT 10SM FEW048 BKN080 OVC090 14/06
A2986 RMK AO2 SLP100 60000 T01390056 10139 20078 50008





000
SAUS46 KPDT 231657
MTRMEH
METAR KMEH 231656Z AUTO 00000KT 10SM BKN045 BKN080 12/06 A2986 RMK
AO2 SLP105 T01170061





000
SAUS46 KPDT 231657
MTRMEH
METAR KMEH 231656Z AUTO 00000KT 10SM BKN045 BKN080 12/06 A2986 RMK
AO2 SLP105 T01170061





000
SAUS46 KPDT 231557
MTRMEH
METAR KMEH 231556Z AUTO 00000KT 10SM BKN060 BKN080 11/06 A2986 RMK
AO2 SLP106 T01060061





000
SAUS46 KPDT 231458
MTRMEH
METAR KMEH 231456Z AUTO 00000KT 10SM BKN050 09/06 A2983 RMK AO2
SLP097 60000 T00940061 58001





000
SAUS46 KPDT 231458
MTRMEH
METAR KMEH 231456Z AUTO 00000KT 10SM BKN050 09/06 A2983 RMK AO2
SLP097 60000 T00940061 58001





000
SAUS46 KPDT 231357
MTRMEH
METAR KMEH 231356Z AUTO 00000KT 10SM SCT050 OVC065 08/07 A2984 RMK
AO2 SLP103 T00830072





000
SAUS46 KPDT 231257
MTRMEH
METAR KMEH 231256Z AUTO 00000KT 10SM FEW048 BKN070 08/07 A2983 RMK
AO2 RAB23E40 SLP095 P0000 T00830072





000
SAUS46 KPDT 231157
MTRMEH
METAR KMEH 231156Z AUTO 00000KT 10SM BKN055 OVC065 08/07 A2983 RMK
AO2 RAE02 SLP098 P0000 60007 70011 T00830072 10117 20083 58004





000
SAUS46 KPDT 231102 COR
MTRMEH
METAR KMEH 231056Z AUTO 00000KT 10SM -RA BKN046 BKN055 OVC080 08/07
A2984 RMK AO2 SLP099 P0006 T00830072





000
SAUS46 KPDT 231058
MTRMEH
NO CARRIER

RING

CONNECT 1200

PHXMTRNYL ALL
TTAA00 KNYL 231057
METAR KNYL 231057Z 00000KT 10SM FEW300 23/10 A2989 RMK AO2 SLP118
T02330100





000
SAUS46 KPDT 231057
MTRMEH
METAR KMEH 231056Z AUTO 00000KT 10SM -RA BKN046 BKN055 OVC080 08/07
A2984 RMK AO2 SLP099 P0006 T00830072





000
SAUS46 KPDT 230957
MTRMEH
METAR KMEH 230956Z AUTO 00000KT 7SM -RA BKN047 OVC060 09/06 A2985
RMK AO2 RAB41 SLP102 P0001 T00940061





000
SAUS46 KPDT 230957
MTRMEH
METAR KMEH 230956Z AUTO 00000KT 7SM -RA BKN047 OVC060 09/06 A2985
RMK AO2 RAB41 SLP102 P0001 T00940061





000
SAUS46 KPDT 230857
MTRMEH
METAR KMEH 230856Z AUTO 00000KT 10SM OVC060 11/04 A2985 RMK AO2
SLP096 T01110039 53001





000
SAUS46 KPDT 230758
MTRMEH
METAR KMEH 230756Z AUTO 00000KT 10SM BKN065 OVC075 11/04 A2984 RMK
AO2 SLP093 T01110039 401441011





000
SAUS46 KPDT 230657
MTRMEH
METAR KMEH 230656Z AUTO 21004KT 10SM BKN070 OVC100 11/04 A2984 RMK
AO2 SLP097 T01110039





000
SAUS46 KPDT 230557
MTRMEH
METAR KMEH 230556Z AUTO VRB03KT 10SM OVC075 11/04 A2985 RMK AO2
SLP101 60002 T01110039 10122 20089 50000





000
SAUS46 KPDT 230500
MTRMEH
METAR KMEH 230456Z AUTO VRB03KT 10SM OVC075 12/04 A2985 RMK AO2
RAE16 SLP105 P0000 T01170039





000
SAUS46 KPDT 230500
MTRMEH
METAR KMEH 230456Z AUTO VRB03KT 10SM OVC075 12/04 A2985 RMK AO2
RAE16 SLP105 P0000 T01170039





000
SAUS46 KPDT 230358
MTRMEH
METAR KMEH 230356Z AUTO 00000KT 10SM -RA OVC060 09/06 A2986 RMK AO2
SLP113 P0002 T00890056





000
SAUS46 KPDT 230358
MTRMEH
METAR KMEH 230356Z AUTO 00000KT 10SM -RA OVC060 09/06 A2986 RMK AO2
SLP113 P0002 T00890056





000
SAUS46 KPDT 230300
MTRMEH
METAR KMEH 230256Z AUTO 00000KT 10SM -RA OVC065 10/03 A2985 RMK AO2
SLP104 P0000 60000 T01000033 58002





000
SAUS46 KPDT 230157
MTRMEH
METAR KMEH 230156Z AUTO 00000KT 10SM -RA OVC075 11/02 A2986 RMK AO2
RAB13 SLP109 P0000 T01060022





000
SAUS46 KPDT 230157
MTRMEH
METAR KMEH 230156Z AUTO 00000KT 10SM -RA OVC075 11/02 A2986 RMK AO2
RAB13 SLP109 P0000 T01060022





000
SAUS46 KPDT 230100
MTRMEH
METAR KMEH 230056Z AUTO VRB03KT 10SM FEW055 BKN080 OVC090 12/01
A2984 RMK AO2 RAB19E34 SLP103 P0000 T01170011





000
SAUS46 KPDT 230100
MTRMEH
METAR KMEH 230056Z AUTO VRB03KT 10SM FEW055 BKN080 OVC090 12/01
A2984 RMK AO2 RAB19E34 SLP103 P0000 T01170011





000
SAUS46 KPDT 230000
MTRMEH
METAR KMEH 222356Z AUTO VRB03KT 10SM FEW055 SCT070 OVC085 12/01
A2985 RMK AO2 SLP106 60000 T01220011 10144 20100 56012





000
SAUS46 KPDT 230000
MTRMEH
METAR KMEH 222356Z AUTO VRB03KT 10SM FEW055 SCT070 OVC085 12/01
A2985 RMK AO2 SLP106 60000 T01220011 10144 20100 56012





000
SAUS46 KPDT 222259
MTRMEH
METAR KMEH 222256Z AUTO VRB03KT 10SM FEW090 SCT100 13/02 A2986 RMK
AO2 SLP108 T01280017





000
SAUS46 KPDT 222259
MTRMEH
METAR KMEH 222256Z AUTO VRB03KT 10SM FEW090 SCT100 13/02 A2986 RMK
AO2 SLP108 T01280017





000
SAUS46 KPDT 222158
MTRMEH
METAR KMEH 222156Z AUTO 00000KT 10SM BKN100 OVC120 13/02 A2987 RMK
AO2 SLP117 T01330017





000
SAUS46 KPDT 222100
MTRMEH
METAR KMEH 222056Z AUTO VRB03KT 10SM OVC095 14/03 A2989 RMK AO2
SLP127 60000 T01390028 58020





000
SAUS46 KPDT 221959
MTRMEH
METAR KMEH 221956Z AUTO VRB04KT 10SM FEW055 OVC080 14/03 A2992 RMK
AO2 RAB36E47 SLP136 P0000 T01390033





000
SAUS46 KPDT 221857
MTRMEH
METAR KMEH 221856Z AUTO 10SM OVC075 12/03 A2994 RMK AO2 SLP147
T01170033





000
SAUS46 KPDT 221759
MTRMEH
METAR KMEH 221756Z AUTO 00000KT 10SM OVC065 10/03 A2996 RMK AO2
RAB34E47 SLP156 P0000 60002 T01000033 10100 20056 58002





000
SAUS46 KPDT 221759
MTRMEH
METAR KMEH 221756Z AUTO 00000KT 10SM OVC065 10/03 A2996 RMK AO2
RAB34E47 SLP156 P0000 60002 T01000033 10100 20056 58002





000
SAUS46 KPDT 221657
MTRMEH
METAR KMEH 221656Z AUTO VRB03KT 10SM BKN060 OVC070 08/03 A2996 RMK
AO2 RAE25 SLP159 P0001 T00830028





000
SAUS46 KPDT 221657
MTRMEH
METAR KMEH 221656Z AUTO VRB03KT 10SM BKN060 OVC070 08/03 A2996 RMK
AO2 RAE25 SLP159 P0001 T00830028





000
SAUS46 KPDT 221600
MTRMEH
METAR KMEH 221556Z AUTO 00000KT 10SM -RA FEW043 BKN060 OVC075 07/03
A2998 RMK AO2 RAB02 SLP163 P0001 T00670033





000
SAUS46 KPDT 221600
MTRMEH
METAR KMEH 221556Z AUTO 00000KT 10SM -RA FEW043 BKN060 OVC075 07/03
A2998 RMK AO2 RAB02 SLP163 P0001 T00670033





000
SAUS46 KPDT 221458
MTRMEH
METAR KMEH 221456Z AUTO VRB03KT 10SM SCT050 OVC065 08/01 A2996 RMK
AO2 SLP154 60000 T00830011 53001





000
SAUS46 KPDT 221400
MTRMEH
METAR KMEH 221356Z AUTO 00000KT 10SM OVC050 07/02 A2995 RMK AO2
RAB06E15 SLP151 P0000 T00670017





000
SAUS46 KPDT 221258
MTRMEH
METAR KMEH 221256Z AUTO 00000KT 10SM OVC060 06/02 A2996 RMK AO2
RAE40 SLP149 P0000 T00610022





000
SAUS46 KPDT 221158
MTRMEH
METAR KMEH 221156Z AUTO 00000KT 10SM -RA SCT060 BKN075 OVC090 07/01
A2996 RMK AO2 RAB51 SLP147 P0000 60000 70002 I6000 T00670011 10067
21017 58003





000
SAUS46 KPDT 221058
MTRMEH
METAR KMEH 221056Z AUTO 00000KT 10SM FEW110 06/01 A2996 RMK AO2
SLP149 T00560011





000
SAUS46 KPDT 221058
MTRMEH
METAR KMEH 221056Z AUTO 00000KT 10SM FEW110 06/01 A2996 RMK AO2
SLP149 T00560011





000
SAUS46 KPDT 221000
MTRMEH
METAR KMEH 220956Z AUTO 00000KT 10SM CLR 03/01 A2997 RMK AO2 SLP152
T00330006





000
SAUS46 KPDT 221000
MTRMEH
METAR KMEH 220956Z AUTO 00000KT 10SM CLR 03/01 A2997 RMK AO2 SLP152
T00330006





000
SAUS46 KPDT 220857
MTRMEH
METAR KMEH 220856Z AUTO 00000KT 10SM CLR M01/M02 A2997 RMK AO2
SLP160 I1000 I3000 T10061017 58008





000
SAUS46 KPDT 220800
MTRMEH
METAR KMEH 220756Z AUTO 00000KT 10SM CLR M01/M02 A2998 RMK AO2
SLP164 I1000 T10111022 401111017





000
SAUS46 KPDT 220659
MTRMEH
METAR KMEH 220656Z AUTO 00000KT 10SM CLR M01/M02 A2999 RMK AO2
SLP168 T10111022





000
SAUS46 KPDT 220557
MTRMEH
METAR KMEH 220556Z AUTO 00000KT 10SM CLR M01/M02 A3000 RMK AO2
SLP170 T10111017 10100 21011 56005





000
SAUS46 KPDT 220557
MTRMEH
METAR KMEH 220556Z AUTO 00000KT 10SM CLR M01/M02 A3000 RMK AO2
SLP170 T10111017 10100 21011 56005





000
SAUS46 KPDT 220458
MTRMEH
METAR KMEH 220456Z AUTO 00000KT 10SM CLR M01/M01 A3000 RMK AO2
SLP171 T10061011





000
SAUS46 KPDT 220458
MTRMEH
METAR KMEH 220456Z AUTO 00000KT 10SM CLR M01/M01 A3000 RMK AO2
SLP171 T10061011





000
SAUS46 KPDT 220357
MTRMEH
METAR KMEH 220356Z AUTO 00000KT 10SM CLR 01/00 A3000 RMK AO2 SLP172
T00110000





000
SAUS46 KPDT 220357
MTRMEH
METAR KMEH 220356Z AUTO 00000KT 10SM CLR 01/00 A3000 RMK AO2 SLP172
T00110000





000
SAUS46 KPDT 220257
MTRMEH
METAR KMEH 220256Z AUTO 00000KT 10SM CLR 02/01 A3002 RMK AO2 SLP176
T00220011 50001





000
SAUS46 KPDT 220158
MTRMEH
METAR KMEH 220156Z AUTO 00000KT 10SM CLR 04/02 A3002 RMK AO2 SLP173
T00440017





000
SAUS46 KPDT 220158
MTRMEH
METAR KMEH 220156Z AUTO 00000KT 10SM CLR 04/02 A3002 RMK AO2 SLP173
T00440017





000
SAUS46 KPDT 220057
MTRMEH
METAR KMEH 220056Z AUTO 00000KT 10SM CLR 07/03 A3002 RMK AO2 SLP172
T00670028





000
SAUS46 KPDT 212357
MTRMEH
METAR KMEH 212356Z AUTO 00000KT 10SM FEW046 09/03 A3001 RMK AO2
SLP167 60002 T00940033 10111 20089 56001





000
SAUS46 KPDT 212258
MTRMEH
METAR KMEH 212256Z AUTO 00000KT 10SM SCT060 10/03 A3001 RMK AO2
SLP167 T01000033





000
SAUS46 KPDT 212258
MTRMEH
METAR KMEH 212256Z AUTO 00000KT 10SM SCT060 10/03 A3001 RMK AO2
SLP167 T01000033





000
SAUS46 KPDT 212157
MTRMEH
METAR KMEH 212156Z AUTO 00000KT 10SM SCT034 SCT041 OVC049 11/04
A3001 RMK AO2 SLP165 T01060044





000
SAUS46 KPDT 212157
MTRMEH
METAR KMEH 212156Z AUTO 00000KT 10SM SCT034 SCT041 OVC049 11/04
A3001 RMK AO2 SLP165 T01060044





000
SAUS46 KPDT 212114
MTRMEH
SPECI KMEH 212113Z AUTO 00000KT 10SM OVC031 09/06 A3002 RMK AO2
T00940056





000
SAUS46 KPDT 212057
MTRMEH
METAR KMEH 212056Z AUTO 00000KT 10SM BKN029 OVC048 09/06 A3002 RMK
AO2 RAB04E36 SLP169 P0002 60002 T00940056 51005





000
SAUS46 KPDT 212046
MTRMEH
SPECI KMEH 212043Z AUTO 00000KT 10SM BKN029 BKN036 OVC046 09/06
A3002 RMK AO2 RAB04E36 P0002 T00940056





000
SAUS46 KPDT 211958
MTRMEH
METAR KMEH 211956Z AUTO VRB03KT 10SM BKN036 OVC047 10/03 A3002 RMK
AO2 SLP166 T01000033





000
SAUS46 KPDT 211958
MTRMEH
METAR KMEH 211956Z AUTO VRB03KT 10SM BKN036 OVC047 10/03 A3002 RMK
AO2 SLP166 T01000033





000
SAUS46 KPDT 211858
MTRMEH
METAR KMEH 211856Z AUTO VRB03KT 10SM BKN034 OVC042 09/03 A3001 RMK
AO2 SLP165 T00940033





000
SAUS46 KPDT 211757
MTRMEH
METAR KMEH 211756Z AUTO VRB04KT 10SM OVC035 09/04 A3000 RMK AO2
SLP162 60000 T00940044 10094 20056 51014





000
SAUS46 KPDT 211726
MTRMEH
SPECI KMEH 211725Z AUTO 00000KT 10SM BKN030 OVC050 09/04 A3000 RMK
AO2 T00890044





000
SAUS46 KPDT 211719
MTRMEH
SPECI KMEH 211717Z AUTO 00000KT 10SM BKN029 BKN037 OVC048 09/05
A3000 RMK AO2 T00890050





000
SAUS46 KPDT 211657
MTRMEH
METAR KMEH 211656Z AUTO VRB03KT 10SM BKN035 OVC046 08/05 A2999 RMK
AO2 SLP159 T00830050





000
SAUS46 KPDT 211657
MTRMEH
METAR KMEH 211656Z AUTO VRB03KT 10SM BKN035 OVC046 08/05 A2999 RMK
AO2 SLP159 T00830050





000
SAUS46 KPDT 211558
MTRMEH
METAR KMEH 211556Z AUTO 00000KT 10SM FEW028 OVC039 07/06 A2998 RMK
AO2 SLP154 T00720056





000
SAUS46 KPDT 211558
MTRMEH
METAR KMEH 211556Z AUTO 00000KT 10SM FEW028 OVC039 07/06 A2998 RMK
AO2 SLP154 T00720056





000
SAUS46 KPDT 211500
MTRMEH
METAR KMEH 211456Z AUTO 00000KT 10SM OVC034 06/06 A2996 RMK AO2
RAE02 SLP148 P0000 60000 T00610056 53016





000
SAUS46 KPDT 211357
MTRMEH
METAR KMEH 211356Z AUTO 00000KT 10SM -RA SCT025 OVC034 06/05 A2994
RMK AO2 RAB42 SLP141 P0000 T00610050





000
SAUS46 KPDT 211315
MTRMEH
SPECI KMEH 211311Z AUTO 00000KT 10SM FEW023 BKN030 OVC036 06/05
A2992 RMK AO2 T00560050





000
SAUS46 KPDT 211257
MTRMEH
METAR KMEH 211256Z AUTO 00000KT 10SM BKN026 OVC031 06/05 A2992 RMK
AO2 SLP133 T00560050





000
SAUS46 KPDT 211248
MTRMEH
SPECI KMEH 211247Z AUTO 00000KT 10SM BKN026 OVC033 06/05 A2992 RMK
AO2 T00560050





    US Dept of Commerce
    National Oceanic and Atmospheric Administration
    National Weather Service
    1325 East West Highway
    Silver Spring, MD 20910
    Page Author: NWS Internet Services Team
Disclaimer
Information Quality
Credits
Glossary
Privacy Policy
Freedom of Information Act (FOIA)
About Us
Career Opportunities